Terminal Aerodrome Forecast
Issued by NWS Wilmington, OH

Current Version | Previous Version | Text Only | Print | Product List | Glossary Off
Versions: 1 2 3 4 5 6 7 8 9 10 11 12 13 14 15 16 17 18 19 20 21 22 23 24 25 26 27 28 29 30 31

000
FTUS41 KILN 010854 AAA
TAFCVG
TAF AMD
KCVG 010854Z 0109/0212 26005KT P6SM SKC
     FM011500 32010KT P6SM FEW050
     FM012300 29004KT P6SM SCT250
     FM020800 23006KT P6SM SCT150=

USA.gov is the U.S. government's official web portal to all federal, state and local government web resources and services.